sensor_id;sensor_type;location;lat;lon;timestamp;pressure;altitude;pressure_sealevel;temperature;humidity
57763;BME280;43592;42.524;12.052;2022-08-19T00:00:05;96145.56;;;19.51;100.00
57763;BME280;43592;42.524;12.052;2022-08-19T00:02:31;96180.69;;;19.62;100.00
57763;BME280;43592;42.524;12.052;2022-08-19T00:04:57;96174.00;;;19.70;100.00
57763;BME280;43592;42.524;12.052;2022-08-19T00:07:22;96146.06;;;19.70;100.00
57763;BME280;43592;42.524;12.052;2022-08-19T00:09:48;96137.47;;;19.75;100.00
57763;BME280;43592;42.524;12.052;2022-08-19T00:12:13;96142.84;;;19.79;100.00
57763;BME280;43592;42.524;12.052;2022-08-19T00:14:39;96168.41;;;19.81;100.00
57763;BME280;43592;42.524;12.052;2022-08-19T00:17:06;96164.84;;;19.88;100.00
57763;BME280;43592;42.524;12.052;2022-08-19T00:19:32;96155.09;;;19.90;100.00
57763;BME280;43592;42.524;12.052;2022-08-19T00:21:58;96131.78;;;19.93;100.00
57763;BME280;43592;42.524;12.052;2022-08-19T00:24:23;96124.75;;;19.95;100.00
57763;BME280;43592;42.524;12.052;2022-08-19T00:26:49;96122.81;;;19.96;100.00
57763;BME280;43592;42.524;12.052;2022-08-19T00:29:16;96131.34;;;19.94;100.00
57763;BME280;43592;42.524;12.052;2022-08-19T00:31:42;96151.97;;;19.92;100.00
57763;BME280;43592;42.524;12.052;2022-08-19T00:34:08;96141.84;;;19.92;100.00
57763;BME280;43592;42.524;12.052;2022-08-19T00:36:34;96114.38;;;19.90;100.00
57763;BME280;43592;42.524;12.052;2022-08-19T00:39:00;96097.34;;;19.86;100.00
57763;BME280;43592;42.524;12.052;2022-08-19T00:41:26;96111.00;;;19.83;100.00
57763;BME280;43592;42.524;12.052;2022-08-19T00:44:05;96114.84;;;19.85;100.00
57763;BME280;43592;42.524;12.052;2022-08-19T00:46:31;96115.66;;;19.82;100.00
57763;BME280;43592;42.524;12.052;2022-08-19T00:48:58;96116.44;;;19.83;100.00
57763;BME280;43592;42.524;12.052;2022-08-19T00:51:27;96110.22;;;19.82;100.00
57763;BME280;43592;42.524;12.052;2022-08-19T00:53:54;96112.94;;;19.82;100.00
57763;BME280;43592;42.524;12.052;2022-08-19T00:56:20;96116.06;;;19.81;100.00
57763;BME280;43592;42.524;12.052;2022-08-19T00:58:47;96125.03;;;19.78;100.00
57763;BME280;43592;42.524;12.052;2022-08-19T01:01:12;96130.16;;;19.72;100.00
57763;BME280;43592;42.524;12.052;2022-08-19T01:03:39;96122.09;;;19.65;100.00
57763;BME280;43592;42.524;12.052;2022-08-19T01:06:05;96120.25;;;19.58;100.00
57763;BME280;43592;42.524;12.052;2022-08-19T01:08:30;96116.88;;;19.50;100.00
57763;BME280;43592;42.524;12.052;2022-08-19T01:10:56;96122.78;;;19.45;100.00
57763;BME280;43592;42.524;12.052;2022-08-19T01:13:23;96124.34;;;19.43;100.00
57763;BME280;43592;42.524;12.052;2022-08-19T01:15:55;96130.94;;;19.42;100.00
57763;BME280;43592;42.524;12.052;2022-08-19T01:18:21;96142.22;;;19.40;100.00
57763;BME280;43592;42.524;12.052;2022-08-19T01:20:47;96134.53;;;19.35;100.00
57763;BME280;43592;42.524;12.052;2022-08-19T01:23:12;96145.38;;;19.35;100.00
57763;BME280;43592;42.524;12.052;2022-08-19T01:25:46;96139.13;;;19.38;100.00
57763;BME280;43592;42.524;12.052;2022-08-19T01:28:15;96129.00;;;19.42;100.00
57763;BME280;43592;42.524;12.052;2022-08-19T01:30:41;96141.34;;;19.47;100.00
57763;BME280;43592;42.524;12.052;2022-08-19T01:33:06;96138.16;;;19.52;100.00
57763;BME280;43592;42.524;12.052;2022-08-19T01:35:32;96141.94;;;19.62;100.00
57763;BME280;43592;42.524;12.052;2022-08-19T01:37:59;96137.25;;;19.62;100.00
57763;BME280;43592;42.524;12.052;2022-08-19T01:40:26;96134.50;;;19.66;100.00
57763;BME280;43592;42.524;12.052;2022-08-19T01:42:53;96137.94;;;19.70;100.00
57763;BME280;43592;42.524;12.052;2022-08-19T01:45:19;96134.41;;;19.73;100.00
57763;BME280;43592;42.524;12.052;2022-08-19T01:47:45;96141.75;;;19.76;100.00
57763;BME280;43592;42.524;12.052;2022-08-19T01:50:10;96137.84;;;19.77;100.00
57763;BME280;43592;42.524;12.052;2022-08-19T01:52:37;96145.16;;;19.80;100.00
57763;BME280;43592;42.524;12.052;2022-08-19T01:55:03;96144.41;;;19.80;100.00
57763;BME280;43592;42.524;12.052;2022-08-19T01:57:29;96139.38;;;19.78;100.00
57763;BME280;43592;42.524;12.052;2022-08-19T01:59:55;96139.84;;;19.73;100.00
57763;BME280;43592;42.524;12.052;2022-08-19T02:02:21;96152.69;;;19.69;100.00
57763;BME280;43592;42.524;12.052;2022-08-19T02:04:47;96146.16;;;19.63;100.00
57763;BME280;43592;42.524;12.052;2022-08-19T02:07:13;96147.75;;;19.60;100.00
57763;BME280;43592;42.524;12.052;2022-08-19T02:09:38;96156.28;;;19.59;100.00
57763;BME280;43592;42.524;12.052;2022-08-19T02:12:04;96149.38;;;19.54;100.00
57763;BME280;43592;42.524;12.052;2022-08-19T02:14:30;96149.09;;;19.48;100.00
57763;BME280;43592;42.524;12.052;2022-08-19T02:16:55;96153.00;;;19.44;100.00
57763;BME280;43592;42.524;12.052;2022-08-19T02:19:21;96151.53;;;19.39;100.00
57763;BME280;43592;42.524;12.052;2022-08-19T02:21:47;96152.38;;;19.33;100.00
57763;BME280;43592;42.524;12.052;2022-08-19T02:24:12;96152.84;;;19.27;100.00
57763;BME280;43592;42.524;12.052;2022-08-19T02:26:38;96153.31;;;19.22;100.00
57763;BME280;43592;42.524;12.052;2022-08-19T02:29:04;96156.38;;;19.24;100.00
57763;BME280;43592;42.524;12.052;2022-08-19T02:31:29;96148.19;;;19.28;100.00
57763;BME280;43592;42.524;12.052;2022-08-19T02:33:55;96161.72;;;19.32;100.00
57763;BME280;43592;42.524;12.052;2022-08-19T02:36:21;96169.09;;;19.31;100.00
57763;BME280;43592;42.524;12.052;2022-08-19T02:38:47;96168.72;;;19.29;100.00
57763;BME280;43592;42.524;12.052;2022-08-19T02:41:17;96171.44;;;19.29;100.00
57763;BME280;43592;42.524;12.052;2022-08-19T02:43:43;96176.53;;;19.23;100.00
57763;BME280;43592;42.524;12.052;2022-08-19T02:46:13;96195.91;;;19.22;100.00
57763;BME280;43592;42.524;12.052;2022-08-19T02:48:39;96207.94;;;19.21;100.00
57763;BME280;43592;42.524;12.052;2022-08-19T02:51:05;96218.81;;;19.21;100.00
57763;BME280;43592;42.524;12.052;2022-08-19T02:53:30;96211.44;;;19.21;100.00
57763;BME280;43592;42.524;12.052;2022-08-19T02:55:56;96222.66;;;19.23;100.00
57763;BME280;43592;42.524;12.052;2022-08-19T02:58:22;96225.72;;;19.25;100.00
57763;BME280;43592;42.524;12.052;2022-08-19T03:00:50;96226.06;;;19.27;100.00
57763;BME280;43592;42.524;12.052;2022-08-19T03:03:16;96224.16;;;19.28;100.00
57763;BME280;43592;42.524;12.052;2022-08-19T03:05:42;96223.38;;;19.27;100.00
57763;BME280;43592;42.524;12.052;2022-08-19T03:08:09;96229.22;;;19.26;100.00
57763;BME280;43592;42.524;12.052;2022-08-19T03:10:55;96220.31;;;19.22;100.00
57763;BME280;43592;42.524;12.052;2022-08-19T03:13:20;96235.13;;;19.17;100.00
57763;BME280;43592;42.524;12.052;2022-08-19T03:15:47;96231.31;;;19.11;100.00
57763;BME280;43592;42.524;12.052;2022-08-19T03:18:13;96229.03;;;19.06;100.00
57763;BME280;43592;42.524;12.052;2022-08-19T03:20:42;96235.66;;;19.01;100.00
57763;BME280;43592;42.524;12.052;2022-08-19T03:23:08;96234.94;;;18.97;100.00
57763;BME280;43592;42.524;12.052;2022-08-19T03:25:38;96223.34;;;18.97;100.00
57763;BME280;43592;42.524;12.052;2022-08-19T03:28:05;96223.34;;;18.93;100.00
57763;BME280;43592;42.524;12.052;2022-08-19T03:30:31;96231.97;;;18.88;100.00
57763;BME280;43592;42.524;12.052;2022-08-19T03:32:57;96233.53;;;18.86;100.00
57763;BME280;43592;42.524;12.052;2022-08-19T03:35:22;96216.13;;;18.83;100.00
57763;BME280;43592;42.524;12.052;2022-08-19T03:37:48;96226.19;;;18.82;100.00
57763;BME280;43592;42.524;12.052;2022-08-19T03:40:13;96233.16;;;18.83;100.00
57763;BME280;43592;42.524;12.052;2022-08-19T03:42:39;96232.00;;;18.81;100.00
57763;BME280;43592;42.524;12.052;2022-08-19T03:45:07;96242.47;;;18.79;100.00
57763;BME280;43592;42.524;12.052;2022-08-19T03:47:33;96241.34;;;18.76;100.00
57763;BME280;43592;42.524;12.052;2022-08-19T03:49:58;96231.28;;;18.77;100.00
57763;BME280;43592;42.524;12.052;2022-08-19T03:52:24;96224.31;;;18.72;100.00
57763;BME280;43592;42.524;12.052;2022-08-19T03:54:50;96232.09;;;18.70;100.00
57763;BME280;43592;42.524;12.052;2022-08-19T03:57:15;96236.78;;;18.66;100.00
57763;BME280;43592;42.524;12.052;2022-08-19T03:59:40;96241.06;;;18.63;100.00
57763;BME280;43592;42.524;12.052;2022-08-19T04:02:07;96235.25;;;18.61;100.00
57763;BME280;43592;42.524;12.052;2022-08-19T04:04:34;96249.63;;;18.58;100.00
57763;BME280;43592;42.524;12.052;2022-08-19T04:07:00;96249.66;;;18.55;100.00
57763;BME280;43592;42.524;12.052;2022-08-19T04:09:25;96240.75;;;18.51;100.00
57763;BME280;43592;42.524;12.052;2022-08-19T04:11:51;96232.31;;;18.45;100.00
57763;BME280;43592;42.524;12.052;2022-08-19T04:14:19;96238.94;;;18.40;100.00
57763;BME280;43592;42.524;12.052;2022-08-19T04:16:46;96230.47;;;18.35;100.00
57763;BME280;43592;42.524;12.052;2022-08-19T04:19:12;96211.50;;;18.31;100.00
57763;BME280;43592;42.524;12.052;2022-08-19T04:21:38;96204.97;;;18.29;100.00
57763;BME280;43592;42.524;12.052;2022-08-19T04:24:04;96211.59;;;18.24;100.00
57763;BME280;43592;42.524;12.052;2022-08-19T04:26:32;96229.44;;;18.18;100.00
57763;BME280;43592;42.524;12.052;2022-08-19T04:29:03;96228.66;;;18.17;100.00
57763;BME280;43592;42.524;12.052;2022-08-19T04:31:30;96230.16;;;18.22;100.00
57763;BME280;43592;42.524;12.052;2022-08-19T04:33:56;96239.41;;;18.28;100.00
57763;BME280;43592;42.524;12.052;2022-08-19T04:36:25;96232.00;;;18.36;100.00
57763;BME280;43592;42.524;12.052;2022-08-19T04:38:53;96233.88;;;18.43;100.00
57763;BME280;43592;42.524;12.052;2022-08-19T04:41:18;96209.81;;;18.52;100.00
57763;BME280;43592;42.524;12.052;2022-08-19T04:44:02;96204.69;;;18.61;100.00
57763;BME280;43592;42.524;12.052;2022-08-19T04:46:29;96213.53;;;18.69;100.00
57763;BME280;43592;42.524;12.052;2022-08-19T04:48:56;96205.75;;;18.74;100.00
57763;BME280;43592;42.524;12.052;2022-08-19T04:51:22;96202.59;;;18.79;100.00
57763;BME280;43592;42.524;12.052;2022-08-19T04:53:48;96195.16;;;18.87;100.00
57763;BME280;43592;42.524;12.052;2022-08-19T04:56:14;96186.16;;;18.94;100.00
57763;BME280;43592;42.524;12.052;2022-08-19T04:58:41;96176.78;;;19.02;100.00
57763;BME280;43592;42.524;12.052;2022-08-19T05:01:08;96161.22;;;19.10;100.00
57763;BME280;43592;42.524;12.052;2022-08-19T05:03:35;96156.41;;;19.21;100.00
57763;BME280;43592;42.524;12.052;2022-08-19T05:06:04;96157.09;;;19.28;100.00
57763;BME280;43592;42.524;12.052;2022-08-19T05:08:33;96163.97;;;19.37;100.00
57763;BME280;43592;42.524;12.052;2022-08-19T05:10:59;96160.38;;;19.43;100.00
57763;BME280;43592;42.524;12.052;2022-08-19T05:13:25;96162.22;;;19.50;100.00
57763;BME280;43592;42.524;12.052;2022-08-19T05:15:55;96159.81;;;19.56;100.00
57763;BME280;43592;42.524;12.052;2022-08-19T05:18:21;96159.75;;;19.63;100.00
57763;BME280;43592;42.524;12.052;2022-08-19T05:21:06;96151.59;;;19.63;100.00
57763;BME280;43592;42.524;12.052;2022-08-19T05:23:50;96148.94;;;19.59;100.00
57763;BME280;43592;42.524;12.052;2022-08-19T05:26:15;96157.09;;;19.56;100.00
57763;BME280;43592;42.524;12.052;2022-08-19T05:28:41;96153.25;;;19.57;100.00
57763;BME280;43592;42.524;12.052;2022-08-19T05:31:06;96144.34;;;19.56;100.00
57763;BME280;43592;42.524;12.052;2022-08-19T05:33:34;96156.78;;;19.50;100.00
57763;BME280;43592;42.524;12.052;2022-08-19T05:36:00;96146.00;;;19.46;100.00
57763;BME280;43592;42.524;12.052;2022-08-19T05:38:26;96139.06;;;19.42;100.00
57763;BME280;43592;42.524;12.052;2022-08-19T05:40:52;96142.59;;;19.42;100.00
57763;BME280;43592;42.524;12.052;2022-08-19T05:43:17;96152.34;;;19.36;100.00
57763;BME280;43592;42.524;12.052;2022-08-19T05:45:43;96146.91;;;19.36;100.00
57763;BME280;43592;42.524;12.052;2022-08-19T05:48:09;96148.19;;;19.28;100.00
57763;BME280;43592;42.524;12.052;2022-08-19T05:50:39;96139.38;;;19.20;100.00
57763;BME280;43592;42.524;12.052;2022-08-19T05:53:05;96159.63;;;19.12;100.00
57763;BME280;43592;42.524;12.052;2022-08-19T05:55:30;96173.56;;;19.11;100.00
57763;BME280;43592;42.524;12.052;2022-08-19T05:57:56;96179.31;;;19.16;100.00
57763;BME280;43592;42.524;12.052;2022-08-19T06:00:21;96174.28;;;19.18;100.00
57763;BME280;43592;42.524;12.052;2022-08-19T06:02:48;96173.44;;;19.21;100.00
57763;BME280;43592;42.524;12.052;2022-08-19T06:05:13;96166.38;;;19.31;100.00
57763;BME280;43592;42.524;12.052;2022-08-19T06:07:39;96176.72;;;19.40;100.00
57763;BME280;43592;42.524;12.052;2022-08-19T06:10:06;96177.03;;;19.45;100.00
57763;BME280;43592;42.524;12.052;2022-08-19T06:12:32;96179.63;;;19.56;100.00
57763;BME280;43592;42.524;12.052;2022-08-19T06:15:00;96170.19;;;19.91;100.00
57763;BME280;43592;42.524;12.052;2022-08-19T06:17:26;96186.91;;;20.64;100.00
57763;BME280;43592;42.524;12.052;2022-08-19T06:19:52;96183.00;;;21.45;100.00
57763;BME280;43592;42.524;12.052;2022-08-19T06:22:17;96191.44;;;21.87;100.00
57763;BME280;43592;42.524;12.052;2022-08-19T06:24:43;96206.09;;;22.09;100.00
57763;BME280;43592;42.524;12.052;2022-08-19T06:27:08;96197.66;;;22.04;100.00
57763;BME280;43592;42.524;12.052;2022-08-19T06:29:34;96198.41;;;21.88;100.00
57763;BME280;43592;42.524;12.052;2022-08-19T06:32:01;96201.69;;;21.63;100.00
57763;BME280;43592;42.524;12.052;2022-08-19T06:34:29;96207.69;;;21.54;100.00
57763;BME280;43592;42.524;12.052;2022-08-19T06:36:55;96204.47;;;21.59;100.00
57763;BME280;43592;42.524;12.052;2022-08-19T06:39:25;96214.31;;;21.73;100.00
57763;BME280;43592;42.524;12.052;2022-08-19T06:41:52;96213.72;;;21.82;100.00
57763;BME280;43592;42.524;12.052;2022-08-19T06:44:19;96224.44;;;21.72;100.00
57763;BME280;43592;42.524;12.052;2022-08-19T06:46:44;96237.28;;;21.72;100.00
57763;BME280;43592;42.524;12.052;2022-08-19T06:49:10;96234.00;;;22.13;100.00
57763;BME280;43592;42.524;12.052;2022-08-19T06:51:42;96238.38;;;22.76;100.00
57763;BME280;43592;42.524;12.052;2022-08-19T06:54:08;96225.91;;;23.21;100.00
57763;BME280;43592;42.524;12.052;2022-08-19T06:56:34;96225.09;;;23.37;100.00
57763;BME280;43592;42.524;12.052;2022-08-19T06:59:01;96231.53;;;23.30;100.00
57763;BME280;43592;42.524;12.052;2022-08-19T07:01:26;96239.22;;;23.48;100.00
57763;BME280;43592;42.524;12.052;2022-08-19T07:03:52;96228.59;;;24.05;100.00
57763;BME280;43592;42.524;12.052;2022-08-19T07:06:18;96214.56;;;24.41;100.00
57763;BME280;43592;42.524;12.052;2022-08-19T07:08:45;96219.94;;;24.79;100.00
57763;BME280;43592;42.524;12.052;2022-08-19T07:11:13;96209.06;;;25.23;100.00
57763;BME280;43592;42.524;12.052;2022-08-19T07:13:39;96221.34;;;24.97;100.00
57763;BME280;43592;42.524;12.052;2022-08-19T07:16:08;96236.00;;;24.17;99.13
57763;BME280;43592;42.524;12.052;2022-08-19T07:18:35;96237.66;;;24.02;100.00
57763;BME280;43592;42.524;12.052;2022-08-19T07:21:05;96234.16;;;24.27;100.00
57763;BME280;43592;42.524;12.052;2022-08-19T07:23:31;96226.47;;;24.60;97.05
57763;BME280;43592;42.524;12.052;2022-08-19T07:25:56;96216.59;;;24.75;93.54
57763;BME280;43592;42.524;12.052;2022-08-19T07:28:22;96223.28;;;24.74;91.38
57763;BME280;43592;42.524;12.052;2022-08-19T07:30:48;96217.41;;;24.63;88.90
57763;BME280;43592;42.524;12.052;2022-08-19T07:33:15;96221.44;;;24.58;89.92
57763;BME280;43592;42.524;12.052;2022-08-19T07:35:43;96215.06;;;24.74;91.03
57763;BME280;43592;42.524;12.052;2022-08-19T07:38:08;96223.31;;;24.36;87.80
57763;BME280;43592;42.524;12.052;2022-08-19T07:40:34;96235.25;;;23.91;93.75
57763;BME280;43592;42.524;12.052;2022-08-19T07:43:00;96231.66;;;24.07;91.15
57763;BME280;43592;42.524;12.052;2022-08-19T07:45:25;96232.41;;;24.33;85.64
57763;BME280;43592;42.524;12.052;2022-08-19T07:47:52;96235.03;;;24.97;83.15
57763;BME280;43592;42.524;12.052;2022-08-19T07:50:18;96236.84;;;24.65;79.91
57763;BME280;43592;42.524;12.052;2022-08-19T07:52:45;96244.97;;;24.30;79.88
57763;BME280;43592;42.524;12.052;2022-08-19T07:55:11;96228.47;;;24.08;83.57
57763;BME280;43592;42.524;12.052;2022-08-19T07:57:37;96227.25;;;24.48;85.60
57763;BME280;43592;42.524;12.052;2022-08-19T08:00:04;96211.03;;;24.66;78.52
57763;BME280;43592;42.524;12.052;2022-08-19T08:02:31;96218.28;;;24.95;79.52
57763;BME280;43592;42.524;12.052;2022-08-19T08:04:56;96222.63;;;25.49;77.61
57763;BME280;43592;42.524;12.052;2022-08-19T08:07:40;96226.69;;;25.00;73.71
57763;BME280;43592;42.524;12.052;2022-08-19T08:10:24;96213.88;;;24.62;76.08
57763;BME280;43592;42.524;12.052;2022-08-19T08:12:50;96208.13;;;25.17;75.70
57763;BME280;43592;42.524;12.052;2022-08-19T08:15:16;96216.63;;;25.63;73.40
57763;BME280;43592;42.524;12.052;2022-08-19T08:17:43;96214.25;;;26.15;71.85
57763;BME280;43592;42.524;12.052;2022-08-19T08:20:09;96219.16;;;26.20;69.74
57763;BME280;43592;42.524;12.052;2022-08-19T08:22:35;96230.56;;;25.56;71.83
57763;BME280;43592;42.524;12.052;2022-08-19T08:25:20;96240.44;;;24.75;76.69
57763;BME280;43592;42.524;12.052;2022-08-19T08:27:46;96239.34;;;24.72;76.64
57763;BME280;43592;42.524;12.052;2022-08-19T08:30:13;96251.88;;;24.48;78.24
57763;BME280;43592;42.524;12.052;2022-08-19T08:32:40;96261.59;;;24.10;76.66
57763;BME280;43592;42.524;12.052;2022-08-19T08:35:07;96266.19;;;23.75;79.55
57763;BME280;43592;42.524;12.052;2022-08-19T08:37:33;96270.97;;;23.71;79.39
57763;BME280;43592;42.524;12.052;2022-08-19T08:40:02;96278.31;;;24.25;76.36
57763;BME280;43592;42.524;12.052;2022-08-19T08:42:30;96285.97;;;24.17;78.54
57763;BME280;43592;42.524;12.052;2022-08-19T08:45:02;96280.50;;;24.17;76.21
57763;BME280;43592;42.524;12.052;2022-08-19T08:47:30;96276.38;;;23.58;77.85
57763;BME280;43592;42.524;12.052;2022-08-19T08:49:59;96276.75;;;23.44;80.80
57763;BME280;43592;42.524;12.052;2022-08-19T08:52:28;96285.19;;;23.20;82.36
57763;BME280;43592;42.524;12.052;2022-08-19T08:54:55;96275.28;;;22.97;83.06
57763;BME280;43592;42.524;12.052;2022-08-19T08:57:30;96280.63;;;23.59;82.33
57763;BME280;43592;42.524;12.052;2022-08-19T08:59:58;96273.19;;;24.02;80.58
57763;BME280;43592;42.524;12.052;2022-08-19T09:02:25;96283.81;;;24.38;79.80
57763;BME280;43592;42.524;12.052;2022-08-19T09:04:51;96274.41;;;24.13;78.96
57763;BME280;43592;42.524;12.052;2022-08-19T09:09:50;96282.66;;;24.74;80.48
57763;BME280;43592;42.524;12.052;2022-08-19T09:12:25;96286.69;;;25.73;75.29
57763;BME280;43592;42.524;12.052;2022-08-19T09:14:58;96292.00;;;25.68;72.99
57763;BME280;43592;42.524;12.052;2022-08-19T09:17:27;96293.44;;;25.82;73.38
57763;BME280;43592;42.524;12.052;2022-08-19T09:22:32;96293.31;;;26.07;69.64
57763;BME280;43592;42.524;12.052;2022-08-19T09:24:57;96293.09;;;25.70;71.47
57763;BME280;43592;42.524;12.052;2022-08-19T09:27:23;96303.69;;;25.24;72.47
57763;BME280;43592;42.524;12.052;2022-08-19T09:29:50;96305.44;;;25.97;69.40
57763;BME280;43592;42.524;12.052;2022-08-19T09:32:15;96316.13;;;26.76;71.28
57763;BME280;43592;42.524;12.052;2022-08-19T09:34:42;96312.25;;;27.50;66.80
57763;BME280;43592;42.524;12.052;2022-08-19T09:37:08;96288.16;;;27.18;65.24
57763;BME280;43592;42.524;12.052;2022-08-19T09:39:34;96299.34;;;26.83;63.16
57763;BME280;43592;42.524;12.052;2022-08-19T09:41:59;96301.63;;;26.35;63.99
57763;BME280;43592;42.524;12.052;2022-08-19T09:44:25;96302.28;;;26.48;65.09
57763;BME280;43592;42.524;12.052;2022-08-19T09:46:50;96293.97;;;26.20;66.34
57763;BME280;43592;42.524;12.052;2022-08-19T09:49:16;96308.88;;;25.66;67.75
57763;BME280;43592;42.524;12.052;2022-08-19T09:51:42;96315.22;;;25.06;70.77
57763;BME280;43592;42.524;12.052;2022-08-19T09:54:08;96321.56;;;24.56;73.91
57763;BME280;43592;42.524;12.052;2022-08-19T09:56:34;96318.00;;;24.04;82.89
57763;BME280;43592;42.524;12.052;2022-08-19T09:59:00;96328.38;;;23.96;84.61
57763;BME280;43592;42.524;12.052;2022-08-19T10:01:28;96326.63;;;23.90;87.23
57763;BME280;43592;42.524;12.052;2022-08-19T10:03:56;96327.53;;;24.12;84.09
57763;BME280;43592;42.524;12.052;2022-08-19T10:06:22;96316.69;;;24.34;83.37
57763;BME280;43592;42.524;12.052;2022-08-19T10:08:50;96310.28;;;24.67;84.87
57763;BME280;43592;42.524;12.052;2022-08-19T10:11:17;96310.19;;;25.05;82.36
57763;BME280;43592;42.524;12.052;2022-08-19T10:13:43;96311.94;;;25.46;77.69
57763;BME280;43592;42.524;12.052;2022-08-19T10:16:11;96308.13;;;25.88;78.77
57763;BME280;43592;42.524;12.052;2022-08-19T10:18:36;96310.59;;;26.26;76.54
57763;BME280;43592;42.524;12.052;2022-08-19T10:21:04;96305.00;;;26.39;72.09
57763;BME280;43592;42.524;12.052;2022-08-19T10:23:32;96299.94;;;26.69;72.19
57763;BME280;43592;42.524;12.052;2022-08-19T10:25:59;96304.88;;;27.10;73.99
57763;BME280;43592;42.524;12.052;2022-08-19T10:28:25;96291.78;;;27.42;71.14
57763;BME280;43592;42.524;12.052;2022-08-19T10:30:50;96297.25;;;27.70;66.61
57763;BME280;43592;42.524;12.052;2022-08-19T10:33:16;96299.22;;;27.79;64.32
57763;BME280;43592;42.524;12.052;2022-08-19T10:35:41;96297.56;;;27.81;66.08
57763;BME280;43592;42.524;12.052;2022-08-19T10:38:07;96295.41;;;27.76;61.24
57763;BME280;43592;42.524;12.052;2022-08-19T10:40:32;96295.72;;;27.87;61.50
57763;BME280;43592;42.524;12.052;2022-08-19T10:42:58;96296.66;;;27.84;59.48
57763;BME280;43592;42.524;12.052;2022-08-19T10:45:23;96301.19;;;28.06;62.62
57763;BME280;43592;42.524;12.052;2022-08-19T10:47:52;96287.91;;;28.37;60.70
57763;BME280;43592;42.524;12.052;2022-08-19T10:50:18;96299.19;;;28.49;58.17
57763;BME280;43592;42.524;12.052;2022-08-19T10:53:07;96302.19;;;28.60;56.80
57763;BME280;43592;42.524;12.052;2022-08-19T10:55:35;96307.31;;;28.76;57.48
57763;BME280;43592;42.524;12.052;2022-08-19T10:58:20;96315.00;;;28.96;57.48
57763;BME280;43592;42.524;12.052;2022-08-19T11:00:51;96306.41;;;29.03;57.74
57763;BME280;43592;42.524;12.052;2022-08-19T11:03:18;96303.34;;;29.25;58.85
57763;BME280;43592;42.524;12.052;2022-08-19T11:05:44;96290.84;;;29.54;57.83
57763;BME280;43592;42.524;12.052;2022-08-19T11:08:09;96290.41;;;29.85;57.16
57763;BME280;43592;42.524;12.052;2022-08-19T11:10:37;96291.16;;;30.15;56.85
57763;BME280;43592;42.524;12.052;2022-08-19T11:13:06;96288.59;;;30.27;54.35
57763;BME280;43592;42.524;12.052;2022-08-19T11:15:31;96292.28;;;30.38;54.92
57763;BME280;43592;42.524;12.052;2022-08-19T11:17:58;96288.78;;;30.23;56.28
57763;BME280;43592;42.524;12.052;2022-08-19T11:20:24;96288.34;;;30.45;56.80
57763;BME280;43592;42.524;12.052;2022-08-19T11:22:50;96290.91;;;30.49;58.00
57763;BME280;43592;42.524;12.052;2022-08-19T11:25:16;96293.16;;;29.85;59.17
57763;BME280;43592;42.524;12.052;2022-08-19T11:27:42;96290.53;;;29.37;61.31
57763;BME280;43592;42.524;12.052;2022-08-19T11:30:09;96299.22;;;29.60;59.83
57763;BME280;43592;42.524;12.052;2022-08-19T11:32:35;96294.84;;;29.14;62.32
57763;BME280;43592;42.524;12.052;2022-08-19T11:35:01;96301.63;;;28.80;61.51
57763;BME280;43592;42.524;12.052;2022-08-19T11:37:26;96305.06;;;28.32;64.35
57763;BME280;43592;42.524;12.052;2022-08-19T11:39:52;96296.22;;;27.49;60.98
57763;BME280;43592;42.524;12.052;2022-08-19T11:42:18;96304.69;;;26.37;65.88
57763;BME280;43592;42.524;12.052;2022-08-19T11:45:03;96307.91;;;25.38;69.90
57763;BME280;43592;42.524;12.052;2022-08-19T11:47:29;96319.47;;;24.73;75.10
57763;BME280;43592;42.524;12.052;2022-08-19T11:49:55;96322.50;;;24.11;76.44
57763;BME280;43592;42.524;12.052;2022-08-19T11:52:22;96317.69;;;23.31;85.34
57763;BME280;43592;42.524;12.052;2022-08-19T11:54:47;96304.28;;;22.42;91.29
57763;BME280;43592;42.524;12.052;2022-08-19T11:57:13;96312.78;;;21.71;97.89
57763;BME280;43592;42.524;12.052;2022-08-19T11:59:42;96327.38;;;21.18;100.00
57763;BME280;43592;42.524;12.052;2022-08-19T12:02:08;96321.16;;;20.94;100.00
57763;BME280;43592;42.524;12.052;2022-08-19T12:04:34;96310.69;;;21.16;100.00
57763;BME280;43592;42.524;12.052;2022-08-19T12:07:00;96306.25;;;21.65;100.00
57763;BME280;43592;42.524;12.052;2022-08-19T12:09:27;96294.72;;;22.34;100.00
57763;BME280;43592;42.524;12.052;2022-08-19T12:11:52;96289.00;;;23.10;100.00
57763;BME280;43592;42.524;12.052;2022-08-19T12:14:19;96285.19;;;23.91;100.00
57763;BME280;43592;42.524;12.052;2022-08-19T12:16:45;96287.50;;;24.70;94.92
57763;BME280;43592;42.524;12.052;2022-08-19T12:19:11;96286.94;;;25.44;91.36
57763;BME280;43592;42.524;12.052;2022-08-19T12:21:37;96267.41;;;26.08;90.57
57763;BME280;43592;42.524;12.052;2022-08-19T12:24:04;96259.53;;;26.60;82.39
57763;BME280;43592;42.524;12.052;2022-08-19T12:26:30;96267.66;;;27.00;78.80
57763;BME280;43592;42.524;12.052;2022-08-19T12:28:56;96254.72;;;27.38;80.95
57763;BME280;43592;42.524;12.052;2022-08-19T12:31:25;96256.72;;;27.19;79.02
57763;BME280;43592;42.524;12.052;2022-08-19T12:33:51;96264.56;;;26.61;75.81
57763;BME280;43592;42.524;12.052;2022-08-19T12:36:17;96253.75;;;25.86;73.73
57763;BME280;43592;42.524;12.052;2022-08-19T12:38:43;96264.19;;;25.13;77.53
57763;BME280;43592;42.524;12.052;2022-08-19T12:41:13;96284.34;;;24.46;81.16
57763;BME280;43592;42.524;12.052;2022-08-19T12:43:39;96285.41;;;23.84;83.82
57763;BME280;43592;42.524;12.052;2022-08-19T12:46:07;96287.53;;;23.35;87.98